ADDS METAR Data INFO
IDs: Format: Raw Decoded Include TAF

Data at: 0213 UTC 19 Jul 2018

KMWL 190153Z AUTO 15006KT 10SM CLR 35/13 A2983 RMK AO2 SLP085 T03500133
KMWL 190053Z AUTO 14006KT 10SM CLR 37/13 A2983 RMK AO2 SLP083 T03720133
KMWL 182353Z AUTO 16003KT 10SM CLR 40/11 A2982 RMK AO2 SLP081 T04000111 10422 20372 56016
KMWL 182253Z AUTO VRB04KT 10SM CLR 41/11 A2984 RMK AO2 SLP087 T04060111
KMWL 182153Z AUTO 18010KT 10SM FEW110 41/12 A2985 RMK AO2 SLP092 T04110117
KMWL 182053Z AUTO 33004KT 10SM CLR 41/12 A2987 RMK AO2 SLP097 T04110122 58023
KMWL 181953Z AUTO 00000KT 10SM CLR 39/12 A2989 RMK AO2 SLP106 T03890122
KMWL 181853Z AUTO VRB04KT 10SM CLR 40/14 A2992 RMK AO2 SLP115 T04000144
KMWL 181753Z AUTO 22005KT 10SM CLR 38/17 A2994 RMK AO2 SLP122 T03780167 10383 20222 58013
KMWL 181653Z AUTO 26006KT 10SM CLR 36/17 A2996 RMK AO2 SLP127 T03610172
KMWL 181553Z AUTO 25009KT 10SM CLR 34/18 A2997 RMK AO2 SLP132 T03440178
KMWL 181453Z AUTO 24007KT 10SM CLR 32/18 A2998 RMK AO2 SLP134 T03220183 50003
KMWL 181353Z AUTO 17005KT 10SM CLR 28/17 A2999 RMK AO2 SLP138 T02780172
KMWL 181253Z AUTO 14005KT 10SM CLR 24/17 A2998 RMK AO2 SLP137 T02440167
KMWL 181153Z AUTO 14007KT 10SM CLR 22/16 A2997 RMK AO2 SLP133 T02220161 10261 20217 53003
KMWL 181053Z AUTO 15007KT 10SM CLR 23/16 A2995 RMK AO2 SLP126 T02330156
KMWL 180953Z AUTO 15006KT 10SM CLR 23/15 A2995 RMK AO2 SLP126 T02280150
KMWL 180853Z AUTO 14004KT 10SM CLR 24/14 A2996 RMK AO2 SLP128 T02440139 55003
KMWL 180753Z AUTO 14007KT 10SM CLR 24/14 A2995 RMK AO2 SLP126 T02390139
KMWL 180653Z AUTO 14007KT 10SM CLR 24/13 A2996 RMK AO2 SLP128 T02440128
KMWL 180553Z AUTO 12004KT 10SM CLR 26/13 A2997 RMK AO2 SLP131 T02610128 10389 20261 404060228 51013
KMWL 180453Z AUTO 15008KT 10SM CLR 28/12 A2996 RMK AO2 SLP128 T02780117
KMWL 180353Z AUTO 15007KT 10SM CLR 29/12 A2995 RMK AO2 SLP125 T02890117
KMWL 180253Z AUTO 14007KT 10SM CLR 29/14 A2993 RMK AO2 SLP119 T02940139 53005
KMWL 180153Z AUTO 19006KT 10SM CLR 34/12 A2992 RMK AO2 SLP114 T03390122
KMWL 180053Z AUTO 19005KT 10SM CLR 36/14 A2992 RMK AO2 SLP113 T03610139
KMWL 172353Z AUTO 19007KT 10SM CLR 39/12 A2991 RMK AO2 SLP113 T03890122 10406 20367 56014
KMWL 172253Z AUTO VRB05KT 10SM CLR 40/13 A2993 RMK AO2 SLP117 T04000128
KMWL 172153Z AUTO 15009KT 10SM CLR 40/12 A2994 RMK AO2 SLP121 T04000122
KMWL 172053Z AUTO 24009KT 10SM CLR 40/12 A2996 RMK AO2 SLP128 T04000122 56023
KMWL 171953Z AUTO 15006KT 10SM CLR 39/13 A2998 RMK AO2 SLP134 T03940128
KMWL 171853Z AUTO 00000KT 10SM CLR 38/15 A3000 RMK AO2 SLP141 T03830150
KMWL 171753Z AUTO 23004KT 10SM CLR 37/16 A3003 RMK AO2 SLP152 T03670161 10372 20233 58007
KMWL 171653Z AUTO 23009KT 10SM CLR 36/18 A3005 RMK AO2 SLP158 T03610183
KMWL 171553Z AUTO 23009KT 10SM CLR 33/19 A3005 RMK AO2 SLP159 T03330189
KMWL 171453Z AUTO 24009KT 10SM CLR 31/20 A3005 RMK AO2 SLP160 T03110200 51010